Time;durP1;ratioP1;P1;durP2;ratioP2;P2;SDS_P1;SDS_P2;PMS_P1;PMS_P2;Temp;Humidity;BMP_temperature;BMP_pressure;BME280_temperature;BME280_humidity;BME280_pressure;Samples;Min_cycle;Max_cycle;Signal;HPM_P1;HPM_P2
2023/11/01 00:01:12;;;;;;;2.13;0.63;;;7.20;99.20;;;;;;5013796;28;20041;-69
2023/11/01 00:03:38;;;;;;;0.93;0.57;;;7.20;99.00;;;;;;5029089;28;20026;-69
2023/11/01 00:06:04;;;;;;;0.50;0.30;;;7.20;98.60;;;;;;5013147;28;20034;-68
2023/11/01 00:08:29;;;;;;;0.82;0.38;;;7.20;99.50;;;;;;5029078;28;20025;-70
2023/11/01 00:10:55;;;;;;;0.70;0.30;;;7.10;99.30;;;;;;5010622;28;20076;-68
2023/11/01 00:13:20;;;;;;;2.35;0.70;;;7.20;99.20;;;;;;5029080;28;20049;-69
2023/11/01 00:15:46;;;;;;;0.82;0.45;;;7.20;98.60;;;;;;5010603;28;20030;-68
2023/11/01 00:18:11;;;;;;;1.70;0.60;;;7.20;98.50;;;;;;5027768;28;20037;-69
2023/11/01 00:20:37;;;;;;;3.42;0.40;;;7.20;98.10;;;;;;5011673;28;20357;-67
2023/11/01 00:23:02;;;;;;;0.40;0.40;;;7.20;98.70;;;;;;5029072;28;20029;-69
2023/11/01 00:25:28;;;;;;;1.73;0.40;;;7.20;98.20;;;;;;5028804;28;20109;-68
2023/11/01 00:27:54;;;;;;;0.75;0.30;;;7.20;98.30;;;;;;5028282;28;20047;-69
2023/11/01 00:30:19;;;;;;;2.03;0.57;;;7.30;98.10;;;;;;5027407;28;20393;-68
2023/11/01 00:32:45;;;;;;;0.57;0.38;;;7.20;98.00;;;;;;5026773;28;20033;-68
2023/11/01 00:35:10;;;;;;;0.77;0.40;;;7.30;97.20;;;;;;5019050;28;20413;-70
2023/11/01 00:37:36;;;;;;;0.68;0.38;;;7.30;97.70;;;;;;5024926;28;20087;-68
2023/11/01 00:40:02;;;;;;;0.65;0.25;;;7.30;97.90;;;;;;5028511;28;20034;-68
2023/11/01 00:42:28;;;;;;;3.55;0.38;;;7.30;97.20;;;;;;5022883;28;20155;-68
2023/11/01 00:44:53;;;;;;;0.80;0.32;;;7.30;97.60;;;;;;5028494;28;20434;-68
2023/11/01 00:47:19;;;;;;;1.77;0.30;;;7.30;97.80;;;;;;5023250;28;20115;-69
2023/11/01 00:49:44;;;;;;;1.95;0.40;;;7.30;98.10;;;;;;5028384;28;20394;-69
2023/11/01 00:52:10;;;;;;;6.53;0.40;;;7.30;97.70;;;;;;5020129;28;20547;-68
2023/11/01 00:54:35;;;;;;;2.42;0.40;;;7.30;97.40;;;;;;5027089;28;20026;-69
2023/11/01 00:57:01;;;;;;;3.55;0.50;;;7.30;97.00;;;;;;5020621;28;20501;-70
2023/11/01 00:59:26;;;;;;;2.42;0.43;;;7.30;96.80;;;;;;5007864;28;20025;-68
2023/11/01 01:01:52;;;;;;;2.05;0.32;;;7.30;96.90;;;;;;5027552;28;20030;-69
2023/11/01 01:04:17;;;;;;;3.70;0.57;;;7.30;96.80;;;;;;5009368;28;20040;-68
2023/11/01 01:06:43;;;;;;;2.50;0.40;;;7.40;97.00;;;;;;5027312;28;20357;-69
2023/11/01 01:09:09;;;;;;;1.63;0.50;;;7.30;96.70;;;;;;5009129;28;20048;-68
2023/11/01 01:11:34;;;;;;;1.10;0.40;;;7.30;97.00;;;;;;5028889;28;20055;-68
2023/11/01 01:14:00;;;;;;;0.55;0.40;;;7.30;96.90;;;;;;5032560;28;20040;-70
2023/11/01 01:16:25;;;;;;;1.02;0.40;;;7.30;97.00;;;;;;5019646;28;20029;-68
2023/11/01 01:18:51;;;;;;;2.00;0.30;;;7.30;97.10;;;;;;5032713;28;20099;-69
2023/11/01 01:21:16;;;;;;;0.63;0.38;;;7.40;97.20;;;;;;5020516;28;20036;-69
2023/11/01 01:23:42;;;;;;;1.88;0.40;;;7.40;97.10;;;;;;5031990;28;20021;-68
2023/11/01 01:26:08;;;;;;;0.57;0.30;;;7.40;96.80;;;;;;5016693;28;20382;-68
2023/11/01 01:28:33;;;;;;;1.27;0.40;;;7.40;96.80;;;;;;5032091;28;20033;-68
2023/11/01 01:30:59;;;;;;;0.85;0.43;;;7.40;97.30;;;;;;5015556;28;20049;-69
2023/11/01 01:33:24;;;;;;;0.50;0.30;;;7.30;97.30;;;;;;5032094;28;20397;-67
2023/11/01 01:35:50;;;;;;;0.20;0.20;;;7.40;97.30;;;;;;5011606;28;20148;-68
2023/11/01 01:38:15;;;;;;;1.15;0.60;;;7.40;97.20;;;;;;5031822;28;20052;-69
2023/11/01 01:40:41;;;;;;;0.88;0.40;;;7.40;97.20;;;;;;5031630;28;20119;-68
2023/11/01 01:43:21;;;;;;;1.98;0.30;;;7.40;97.50;;;;;;5031904;28;20485;-69
2023/11/01 01:45:51;;;;;;;0.40;0.35;;;7.40;97.60;;;;;;5013431;28;20273;-69
2023/11/01 01:48:17;;;;;;;0.88;0.43;;;7.40;97.60;;;;;;5031812;28;20449;-69
2023/11/01 01:50:43;;;;;;;1.52;0.50;;;7.30;97.80;;;;;;5015263;28;20029;-68
2023/11/01 01:53:08;;;;;;;0.57;0.20;;;7.30;98.00;;;;;;5032023;28;20025;-68
2023/11/01 01:55:35;;;;;;;1.35;0.43;;;7.30;98.20;;;;;;5031575;28;20041;-68
2023/11/01 01:58:00;;;;;;;1.10;0.60;;;7.30;98.20;;;;;;5031507;28;20040;-69
2023/11/01 02:00:28;;;;;;;1.77;0.60;;;7.30;98.40;;;;;;5012261;28;20042;-68
2023/11/01 02:02:54;;;;;;;0.47;0.30;;;7.40;98.40;;;;;;5030753;28;20037;-68
2023/11/01 02:05:20;;;;;;;1.25;0.40;;;7.40;98.50;;;;;;5031570;28;20496;-70
2023/11/01 02:07:46;;;;;;;1.83;0.40;;;7.40;98.80;;;;;;5029336;28;20037;-69
2023/11/01 02:10:14;;;;;;;1.58;0.40;;;7.40;99.00;;;;;;5031465;28;20512;-69
2023/11/01 02:12:40;;;;;;;1.75;0.35;;;7.40;99.00;;;;;;5028435;28;20053;-69
2023/11/01 02:15:06;;;;;;;0.60;0.60;;;7.40;99.10;;;;;;5031458;28;20072;-69
2023/11/01 02:17:32;;;;;;;0.70;0.57;;;7.40;99.20;;;;;;5026294;28;20036;-69
2023/11/01 02:19:58;;;;;;;2.67;0.45;;;7.40;99.10;;;;;;5031194;28;20037;-69
2023/11/01 02:22:23;;;;;;;1.85;0.43;;;7.40;99.20;;;;;;5024095;28;20030;-68
2023/11/01 02:24:50;;;;;;;2.70;0.40;;;7.40;99.50;;;;;;5030678;28;20022;-69
2023/11/01 02:27:16;;;;;;;1.98;0.65;;;7.40;99.50;;;;;;5025258;28;20045;-68
2023/11/01 02:29:41;;;;;;;1.95;0.50;;;7.30;99.30;;;;;;5030933;28;20063;-68
2023/11/01 02:32:08;;;;;;;1.77;0.63;;;7.30;99.50;;;;;;5023991;28;20401;-68
2023/11/01 02:34:34;;;;;;;1.63;0.50;;;7.40;99.70;;;;;;5025318;28;20070;-68
2023/11/01 02:36:59;;;;;;;1.67;0.70;;;7.30;99.90;;;;;;5017663;28;20026;-69
2023/11/01 02:39:25;;;;;;;0.40;0.40;;;7.40;99.90;;;;;;5029509;28;20031;-67
2023/11/01 02:41:50;;;;;;;1.38;0.47;;;7.40;99.90;;;;;;5021545;28;20029;-68
2023/11/01 02:44:16;;;;;;;1.05;0.50;;;7.40;99.90;;;;;;5011621;28;20042;-69
2023/11/01 02:46:41;;;;;;;0.30;0.30;;;7.40;99.90;;;;;;5029587;28;20116;-68
2023/11/01 02:49:07;;;;;;;0.55;0.55;;;7.40;99.90;;;;;;5011611;28;20583;-68
2023/11/01 02:51:32;;;;;;;0.77;0.63;;;7.40;99.90;;;;;;5026787;28;20018;-69
2023/11/01 02:53:58;;;;;;;3.15;0.60;;;7.40;99.80;;;;;;5030474;28;20041;-68
2023/11/01 02:56:24;;;;;;;6.72;0.57;;;7.40;99.40;;;;;;5016013;28;20026;-68
2023/11/01 02:58:49;;;;;;;3.22;0.55;;;7.40;99.70;;;;;;5030630;28;20075;-69
2023/11/01 03:01:16;;;;;;;1.55;0.40;;;7.30;99.60;;;;;;5016301;28;20049;-70
2023/11/01 03:03:42;;;;;;;3.08;0.70;;;7.40;99.80;;;;;;5030665;28;20037;-70
2023/11/01 03:06:08;;;;;;;0.85;0.50;;;7.30;99.90;;;;;;5013715;28;20393;-70
2023/11/01 03:08:34;;;;;;;2.40;0.50;;;7.30;99.60;;;;;;5030492;28;20033;-64
2023/11/01 03:11:00;;;;;;;1.52;0.52;;;7.40;99.90;;;;;;5013753;28;20083;-66
2023/11/01 03:13:25;;;;;;;5.18;0.60;;;7.40;99.90;;;;;;5030451;28;20440;-66
2023/11/01 03:15:51;;;;;;;2.72;0.45;;;7.40;99.90;;;;;;5012467;28;20029;-66
2023/11/01 03:18:16;;;;;;;2.53;0.43;;;7.40;99.90;;;;;;5028914;28;20109;-67
2023/11/01 03:20:42;;;;;;;1.00;0.60;;;7.40;99.90;;;;;;5012220;28;20517;-66
2023/11/01 03:23:07;;;;;;;1.58;0.57;;;7.40;99.90;;;;;;5029857;28;20025;-67
2023/11/01 03:25:33;;;;;;;0.52;0.38;;;7.40;99.90;;;;;;5029842;28;20695;-67
2023/11/01 03:27:58;;;;;;;0.85;0.40;;;7.40;99.90;;;;;;5029804;28;20034;-66
2023/11/01 03:30:23;;;;;;;2.20;0.60;;;7.40;99.90;;;;;;5009395;28;20124;-66
2023/11/01 03:32:49;;;;;;;1.60;0.57;;;7.40;99.90;;;;;;5028974;28;20037;-67
2023/11/01 03:35:15;;;;;;;1.08;0.52;;;7.40;99.90;;;;;;5019793;28;20049;-66
2023/11/01 03:37:40;;;;;;;1.88;0.25;;;7.40;99.90;;;;;;5025878;28;20405;-66
2023/11/01 03:40:07;;;;;;;0.50;0.30;;;7.50;99.90;;;;;;5029896;28;20279;-67
2023/11/01 03:42:32;;;;;;;1.92;0.40;;;7.50;99.90;;;;;;5026049;28;20033;-66
2023/11/01 03:44:58;;;;;;;1.48;0.60;;;7.40;99.90;;;;;;5028122;28;20072;-67
2023/11/01 03:47:23;;;;;;;0.68;0.47;;;7.40;99.90;;;;;;5024433;28;20041;-66
2023/11/01 03:49:49;;;;;;;0.50;0.50;;;7.40;99.90;;;;;;5029430;28;20041;-66
2023/11/01 03:52:15;;;;;;;2.00;0.47;;;7.40;99.90;;;;;;5020537;28;20049;-66
2023/11/01 03:54:40;;;;;;;0.57;0.50;;;7.40;99.90;;;;;;5027969;28;20506;-66
2023/11/01 03:57:06;;;;;;;1.33;0.47;;;7.40;99.90;;;;;;5022076;28;20037;-66
2023/11/01 03:59:32;;;;;;;0.50;0.43;;;7.40;99.90;;;;;;5029164;28;20037;-67
2023/11/01 04:01:58;;;;;;;2.47;0.32;;;7.40;99.90;;;;;;5020630;28;20036;-67
2023/11/01 04:04:23;;;;;;;2.17;0.57;;;7.40;99.90;;;;;;5009928;28;20038;-67
2023/11/01 04:06:49;;;;;;;0.85;0.50;;;7.40;99.90;;;;;;5028009;28;20068;-66
2023/11/01 04:09:14;;;;;;;1.02;0.52;;;7.40;99.90;;;;;;5009844;28;20026;-67
2023/11/01 04:11:41;;;;;;;2.70;0.60;;;7.40;99.90;;;;;;5026823;28;20030;-66
2023/11/01 04:14:07;;;;;;;1.13;0.60;;;7.30;99.90;;;;;;5009742;28;20041;-66
2023/11/01 04:16:32;;;;;;;1.17;0.65;;;7.30;99.90;;;;;;5028235;28;20708;-66
2023/11/01 04:18:58;;;;;;;3.97;0.80;;;7.30;99.90;;;;;;5029308;28;20056;-66
2023/11/01 04:21:24;;;;;;;1.77;0.50;;;7.30;99.90;;;;;;5016591;28;20033;-67
2023/11/01 04:23:51;;;;;;;2.40;0.50;;;7.30;99.90;;;;;;5028959;28;20025;-66
2023/11/01 04:26:18;;;;;;;0.95;0.40;;;7.30;99.90;;;;;;5008529;28;20080;-66
2023/11/01 04:28:44;;;;;;;0.88;0.50;;;7.30;99.90;;;;;;5024694;28;20025;-66
2023/11/01 04:31:09;;;;;;;1.13;0.60;;;7.40;99.90;;;;;;5009569;28;20113;-66
2023/11/01 04:33:35;;;;;;;0.77;0.50;;;7.30;99.90;;;;;;5028292;28;20424;-66
2023/11/01 04:36:01;;;;;;;2.42;0.50;;;7.40;99.90;;;;;;5009337;28;20379;-66
2023/11/01 04:38:26;;;;;;;0.55;0.50;;;7.30;99.90;;;;;;5026493;28;20032;-66
2023/11/01 04:40:53;;;;;;;1.02;0.45;;;7.30;99.90;;;;;;5028685;28;20091;-67
2023/11/01 04:43:19;;;;;;;2.78;0.75;;;7.30;99.90;;;;;;5026467;28;20025;-67
2023/11/01 04:45:45;;;;;;;1.33;0.40;;;7.30;99.90;;;;;;5028063;28;20446;-68
2023/11/01 04:48:11;;;;;;;2.30;0.40;;;7.30;99.90;;;;;;5023997;28;20041;-67
2023/11/01 04:50:36;;;;;;;0.55;0.50;;;7.20;99.90;;;;;;5028326;28;20397;-68
2023/11/01 04:53:02;;;;;;;1.90;0.65;;;7.20;99.90;;;;;;5022582;28;20025;-67
2023/11/01 04:55:28;;;;;;;1.50;0.47;;;7.20;99.90;;;;;;5028315;28;20091;-67
2023/11/01 04:57:53;;;;;;;1.98;0.57;;;7.20;99.90;;;;;;5023014;28;20485;-68
2023/11/01 05:00:19;;;;;;;0.95;0.60;;;7.20;99.90;;;;;;5028398;28;20037;-67
2023/11/01 05:02:48;;;;;;;4.63;0.70;;;7.20;99.90;;;;;;5021819;28;20037;-67
2023/11/01 05:05:14;;;;;;;1.27;0.38;;;7.10;99.90;;;;;;5021622;28;20034;-67
2023/11/01 05:07:40;;;;;;;2.05;0.77;;;7.10;99.90;;;;;;5020044;28;20453;-67
2023/11/01 05:10:06;;;;;;;2.63;0.70;;;7.10;99.90;;;;;;5009292;28;20030;-67
2023/11/01 05:12:31;;;;;;;2.30;0.65;;;7.00;99.90;;;;;;5027370;28;20092;-66
2023/11/01 05:14:57;;;;;;;4.30;0.88;;;7.00;99.90;;;;;;5009096;28;20034;-67
2023/11/01 05:17:23;;;;;;;1.52;0.47;;;7.00;99.90;;;;;;5027652;28;20452;-66
2023/11/01 05:19:48;;;;;;;2.85;0.82;;;7.00;99.90;;;;;;5009024;28;20061;-66
2023/11/01 05:22:14;;;;;;;1.48;0.70;;;7.00;99.90;;;;;;5025508;28;20045;-66
2023/11/01 05:24:39;;;;;;;2.20;0.65;;;7.00;99.90;;;;;;5007712;28;20064;-66
2023/11/01 05:27:07;;;;;;;2.80;0.70;;;7.00;99.90;;;;;;5024320;28;20033;-66
2023/11/01 05:29:33;;;;;;;2.08;0.80;;;7.00;99.90;;;;;;5028211;28;20025;-66
2023/11/01 05:31:59;;;;;;;3.55;0.80;;;7.00;99.90;;;;;;5015313;28;20108;-67
2023/11/01 05:34:24;;;;;;;2.17;1.00;;;7.00;99.90;;;;;;5023805;28;20553;-68
2023/11/01 05:36:50;;;;;;;2.80;0.80;;;7.00;99.90;;;;;;5012219;28;20029;-66
2023/11/01 05:39:16;;;;;;;1.55;0.80;;;7.00;99.90;;;;;;5026962;28;20021;-68
2023/11/01 05:41:45;;;;;;;1.65;0.82;;;7.00;99.90;;;;;;5011361;28;20036;-67
2023/11/01 05:44:11;;;;;;;1.52;0.82;;;7.00;99.90;;;;;;5028245;28;20021;-67
2023/11/01 05:46:36;;;;;;;1.30;1.00;;;7.00;99.90;;;;;;5011803;28;20563;-67
2023/11/01 05:49:02;;;;;;;1.75;0.82;;;7.00;99.90;;;;;;5028230;28;20029;-67
2023/11/01 05:51:27;;;;;;;2.30;0.80;;;7.00;99.90;;;;;;5008859;28;20042;-68
2023/11/01 05:53:53;;;;;;;3.42;0.80;;;6.90;99.90;;;;;;5028033;28;20048;-68
2023/11/01 05:56:19;;;;;;;3.67;0.93;;;6.90;99.90;;;;;;5009428;28;20041;-66
2023/11/01 05:58:45;;;;;;;1.60;0.93;;;6.90;99.90;;;;;;5029620;28;20391;-67
2023/11/01 06:01:10;;;;;;;3.58;0.88;;;6.90;99.90;;;;;;5012184;28;20030;-67
2023/11/01 06:03:36;;;;;;;1.73;1.00;;;7.00;99.90;;;;;;5031129;28;20021;-67
2023/11/01 06:06:01;;;;;;;2.08;1.30;;;7.00;99.90;;;;;;5012143;28;20033;-68
2023/11/01 06:08:27;;;;;;;2.47;1.30;;;7.00;99.90;;;;;;5029147;28;20641;-66
2023/11/01 06:10:54;;;;;;;2.30;1.20;;;7.00;99.90;;;;;;5031181;28;20021;-67
2023/11/01 06:13:20;;;;;;;3.40;1.25;;;7.00;99.90;;;;;;5027818;28;20493;-67
2023/11/01 06:15:46;;;;;;;3.75;1.30;;;7.00;99.90;;;;;;5031095;28;20041;-67
2023/11/01 06:18:11;;;;;;;3.53;1.08;;;7.00;99.90;;;;;;5028130;28;20034;-67
2023/11/01 06:20:37;;;;;;;1.95;0.95;;;7.00;99.90;;;;;;5030768;28;20546;-67
2023/11/01 06:23:08;;;;;;;6.45;2.15;;;7.00;99.90;;;;;;5023746;28;20040;-67
2023/11/01 06:25:34;;;;;;;5.20;1.00;;;7.00;99.90;;;;;;5018420;28;20033;-67
2023/11/01 06:27:59;;;;;;;1.73;1.33;;;7.10;99.90;;;;;;5023536;28;20038;-67
2023/11/01 06:30:25;;;;;;;1.80;1.20;;;7.10;99.90;;;;;;5031109;28;20048;-67
2023/11/01 06:32:51;;;;;;;3.92;1.00;;;7.10;99.90;;;;;;5016754;28;20026;-67
2023/11/01 06:35:16;;;;;;;2.92;0.68;;;7.10;99.90;;;;;;5020764;28;20532;-67
2023/11/01 06:37:42;;;;;;;2.42;0.98;;;7.10;99.90;;;;;;5029453;28;20037;-67
2023/11/01 06:40:09;;;;;;;5.47;0.90;;;7.10;99.90;;;;;;5030673;28;20067;-68
2023/11/01 06:42:34;;;;;;;1.42;0.77;;;7.20;99.90;;;;;;5013983;28;20029;-67
2023/11/01 06:45:00;;;;;;;1.08;0.98;;;7.20;99.90;;;;;;5030723;28;20029;-67
2023/11/01 06:47:25;;;;;;;2.38;1.23;;;7.20;99.90;;;;;;5012773;28;20394;-67
2023/11/01 06:49:51;;;;;;;2.83;1.65;;;7.20;99.90;;;;;;5030515;28;20025;-67
2023/11/01 06:52:16;;;;;;;3.67;1.08;;;7.20;99.90;;;;;;5009847;28;20028;-66
2023/11/01 06:54:43;;;;;;;2.45;0.90;;;7.30;99.90;;;;;;5030322;28;20025;-67
2023/11/01 06:57:10;;;;;;;4.55;1.10;;;7.30;99.90;;;;;;5010881;28;20022;-67
2023/11/01 06:59:36;;;;;;;2.40;1.02;;;7.30;99.90;;;;;;5029941;28;20029;-67
2023/11/01 07:02:02;;;;;;;2.35;0.98;;;7.30;99.90;;;;;;5010760;28;20398;-67
2023/11/01 07:04:28;;;;;;;3.25;0.88;;;7.40;99.90;;;;;;5027982;28;20036;-67
2023/11/01 07:06:53;;;;;;;2.00;0.80;;;7.40;99.90;;;;;;5029804;28;20104;-68
2023/11/01 07:09:19;;;;;;;5.05;0.98;;;7.40;99.90;;;;;;5027430;28;20064;-68
2023/11/01 07:11:44;;;;;;;3.35;1.00;;;7.50;99.90;;;;;;5029938;28;20025;-67
2023/11/01 07:14:10;;;;;;;2.53;0.80;;;7.50;99.90;;;;;;5026846;28;20095;-68
2023/11/01 07:16:39;;;;;;;1.30;0.70;;;7.50;99.90;;;;;;5028568;28;20404;-67
2023/11/01 07:19:04;;;;;;;2.30;0.70;;;7.60;99.90;;;;;;5025373;28;20505;-67
2023/11/01 07:21:30;;;;;;;3.38;0.73;;;7.60;99.90;;;;;;5029495;28;20029;-67
2023/11/01 07:23:56;;;;;;;0.95;0.80;;;7.60;99.90;;;;;;5023242;28;20100;-67
2023/11/01 07:26:21;;;;;;;2.25;0.80;;;7.60;99.90;;;;;;5029556;28;20401;-67
2023/11/01 07:28:47;;;;;;;2.83;0.88;;;7.70;99.90;;;;;;5022945;28;20041;-67
2023/11/01 07:31:16;;;;;;;0.93;0.55;;;7.70;99.90;;;;;;5029718;28;20103;-67
2023/11/01 07:33:42;;;;;;;0.85;0.50;;;7.80;99.90;;;;;;5022482;28;20272;-67
2023/11/01 07:36:09;;;;;;;4.13;0.80;;;7.80;99.90;;;;;;5029538;28;20065;-67
2023/11/01 07:38:34;;;;;;;4.90;0.50;;;7.80;99.90;;;;;;5021362;28;20056;-67
2023/11/01 07:41:00;;;;;;;1.20;0.60;;;7.90;99.90;;;;;;5010343;28;20261;-68
2023/11/01 07:43:26;;;;;;;1.25;0.80;;;8.00;99.90;;;;;;5028463;28;20050;-67
2023/11/01 07:45:52;;;;;;;0.65;0.30;;;8.10;99.90;;;;;;5010171;28;20060;-67
2023/11/01 07:48:18;;;;;;;0.75;0.50;;;8.20;99.90;;;;;;5027047;28;20041;-64
2023/11/01 07:50:44;;;;;;;2.58;0.60;;;8.20;99.90;;;;;;5010042;28;20034;-65
2023/11/01 07:53:09;;;;;;;6.68;0.82;;;8.20;99.90;;;;;;5026612;28;20026;-64
2023/11/01 07:55:35;;;;;;;1.95;0.80;;;8.30;99.90;;;;;;5009880;28;20535;-64
2023/11/01 07:58:00;;;;;;;1.98;0.70;;;8.30;99.90;;;;;;5028128;28;20091;-64
2023/11/01 08:00:26;;;;;;;1.40;0.60;;;8.40;99.90;;;;;;5027924;28;20256;-64
2023/11/01 08:02:53;;;;;;;2.40;0.70;;;8.50;99.90;;;;;;5015155;28;20017;-64
2023/11/01 08:05:19;;;;;;;1.75;1.13;;;8.60;99.90;;;;;;5029083;28;20109;-65
2023/11/01 08:07:45;;;;;;;1.42;0.90;;;8.60;99.90;;;;;;5013781;28;20030;-66
2023/11/01 08:10:11;;;;;;;1.60;0.73;;;8.60;99.90;;;;;;5028865;28;20028;-67
2023/11/01 08:12:36;;;;;;;1.00;0.70;;;8.60;99.90;;;;;;5012723;28;20041;-66
2023/11/01 08:15:02;;;;;;;3.63;0.80;;;8.80;99.90;;;;;;5028912;28;20480;-66
2023/11/01 08:17:27;;;;;;;1.67;0.80;;;8.90;99.90;;;;;;5011452;28;20062;-66
2023/11/01 08:19:53;;;;;;;2.67;0.80;;;8.90;99.90;;;;;;5028789;28;20025;-66
2023/11/01 08:22:19;;;;;;;1.15;0.88;;;9.10;99.90;;;;;;5007776;28;20030;-66
2023/11/01 08:24:44;;;;;;;3.30;1.73;;;9.30;99.90;;;;;;5028930;28;20076;-66
2023/11/01 08:27:10;;;;;;;5.75;1.30;;;9.40;99.90;;;;;;5011739;28;20037;-66
2023/11/01 08:29:35;;;;;;;5.88;1.17;;;9.50;99.90;;;;;;5028341;28;20034;-66
2023/11/01 08:32:05;;;;;;;3.08;0.95;;;9.50;99.90;;;;;;5028786;28;20025;-67
2023/11/01 08:34:31;;;;;;;2.58;1.08;;;9.60;99.50;;;;;;5027768;28;20555;-67
2023/11/01 08:36:56;;;;;;;2.17;0.95;;;9.80;99.90;;;;;;5028447;28;20045;-67
2023/11/01 08:39:22;;;;;;;4.68;1.35;;;10.00;99.90;;;;;;5027198;28;20032;-67
2023/11/01 08:41:47;;;;;;;1.40;0.60;;;10.30;99.90;;;;;;5028259;28;20029;-67
2023/11/01 08:44:13;;;;;;;2.75;1.20;;;10.50;99.90;;;;;;5025752;28;20520;-67
2023/11/01 08:46:38;;;;;;;2.38;1.13;;;10.70;99.90;;;;;;5028129;28;20104;-67
2023/11/01 08:49:04;;;;;;;1.15;0.90;;;10.90;99.90;;;;;;5024441;28;20042;-67
2023/11/01 08:51:29;;;;;;;1.48;0.88;;;11.00;99.90;;;;;;5028083;28;20378;-67
2023/11/01 08:53:58;;;;;;;2.17;1.13;;;11.20;99.90;;;;;;5021483;28;20026;-67
2023/11/01 08:56:24;;;;;;;1.85;0.70;;;11.40;99.50;;;;;;5028295;28;20493;-67
2023/11/01 08:58:49;;;;;;;2.83;1.00;;;11.60;99.40;;;;;;5020341;28;20051;-67
2023/11/01 09:01:16;;;;;;;3.00;1.20;;;11.70;98.10;;;;;;5008936;28;20384;-67
2023/11/01 09:03:42;;;;;;;2.42;1.00;;;11.90;97.50;;;;;;5026163;28;20075;-67
2023/11/01 09:06:08;;;;;;;3.97;1.20;;;12.00;95.70;;;;;;5028139;28;20025;-67
2023/11/01 09:08:33;;;;;;;3.55;1.10;;;11.90;94.40;;;;;;5014274;28;20605;-67
2023/11/01 09:10:58;;;;;;;3.42;1.13;;;12.00;94.00;;;;;;5028500;28;20505;-64
2023/11/01 09:13:24;;;;;;;3.75;1.30;;;12.00;93.40;;;;;;5013651;28;20040;-65
2023/11/01 09:15:50;;;;;;;3.53;1.05;;;12.00;92.30;;;;;;5028508;28;20457;-71
2023/11/01 09:18:15;;;;;;;2.00;1.35;;;11.80;90.70;;;;;;5012010;28;20493;-71
2023/11/01 09:20:41;;;;;;;1.88;0.90;;;11.80;91.40;;;;;;5027841;28;20546;-71
2023/11/01 09:23:06;;;;;;;2.45;1.23;;;11.80;91.40;;;;;;5010723;28;20033;-71
2023/11/01 09:25:32;;;;;;;2.08;0.90;;;11.90;91.50;;;;;;5026795;28;20112;-71
2023/11/01 09:27:58;;;;;;;1.50;1.00;;;12.10;91.40;;;;;;5004321;28;20165;-71
2023/11/01 09:30:24;;;;;;;2.70;0.90;;;12.10;90.80;;;;;;5028047;28;20104;-71
2023/11/01 09:32:49;;;;;;;3.97;1.02;;;12.10;90.50;;;;;;5010612;28;20029;-71
2023/11/01 09:35:15;;;;;;;5.60;1.17;;;12.00;90.40;;;;;;5021412;28;20041;-71
2023/11/01 09:37:40;;;;;;;4.63;1.20;;;11.90;90.50;;;;;;5030851;28;20054;-71
2023/11/01 09:40:10;;;;;;;1.55;1.10;;;12.00;90.90;;;;;;5029392;28;20033;-71
2023/11/01 09:42:37;;;;;;;2.35;1.10;;;12.00;91.00;;;;;;4992431;28;20034;-70
2023/11/01 09:45:06;;;;;;;4.55;0.98;;;12.00;91.10;;;;;;5029153;28;20112;-71
2023/11/01 09:47:32;;;;;;;2.88;1.10;;;12.00;91.20;;;;;;5031298;28;20109;-70
2023/11/01 09:49:58;;;;;;;3.90;1.00;;;12.00;91.30;;;;;;5029231;28;20029;-71
2023/11/01 09:52:24;;;;;;;2.88;1.08;;;12.00;91.40;;;;;;5031288;28;20044;-70
2023/11/01 09:54:50;;;;;;;2.28;0.80;;;12.00;91.70;;;;;;5028237;28;20512;-71
2023/11/01 09:57:17;;;;;;;2.13;0.85;;;12.00;91.70;;;;;;5031262;28;20053;-70
2023/11/01 09:59:44;;;;;;;3.80;1.00;;;12.10;91.90;;;;;;5025500;28;20036;-70
2023/11/01 10:02:11;;;;;;;2.53;1.13;;;12.10;91.90;;;;;;5029989;28;20029;-70
2023/11/01 10:04:39;;;;;;;3.92;1.08;;;12.10;92.20;;;;;;5026111;28;20519;-70
2023/11/01 10:07:07;;;;;;;6.20;1.30;;;12.00;92.30;;;;;;5031213;28;20037;-70
2023/11/01 10:09:35;;;;;;;1.13;1.02;;;12.00;92.60;;;;;;5023859;28;20026;-70
2023/11/01 10:12:00;;;;;;;3.40;1.02;;;11.90;92.90;;;;;;5030977;28;20029;-70
2023/11/01 10:14:32;;;;;;;2.25;1.13;;;12.00;93.30;;;;;;5024519;28;20099;-70
2023/11/01 10:16:58;;;;;;;2.75;0.90;;;12.00;93.50;;;;;;5031115;28;20033;-70
2023/11/01 10:19:25;;;;;;;3.42;1.23;;;12.00;93.80;;;;;;5024056;28;20034;-70
2023/11/01 10:21:54;;;;;;;1.88;1.05;;;12.10;94.10;;;;;;5030507;28;20275;-70
2023/11/01 10:24:25;;;;;;;4.85;1.67;;;12.20;94.30;;;;;;5023061;28;20030;-70
2023/11/01 10:26:52;;;;;;;3.10;1.55;;;12.20;94.40;;;;;;5030621;28;20505;-70
2023/11/01 10:29:17;;;;;;;5.13;1.30;;;12.20;94.80;;;;;;5021283;28;20441;-70
2023/11/01 10:32:00;;;;;;;1.80;1.00;;;12.30;95.30;;;;;;5030521;28;20033;-70
2023/11/01 10:34:31;;;;;;;2.75;1.10;;;12.30;95.20;;;;;;5013161;28;20096;-70
2023/11/01 10:36:59;;;;;;;4.75;1.73;;;12.30;95.60;;;;;;5015924;28;20075;-70
2023/11/01 10:39:25;;;;;;;3.33;1.23;;;12.30;95.60;;;;;;5023554;28;20079;-70
2023/11/01 10:41:53;;;;;;;4.20;1.30;;;12.30;96.10;;;;;;5030571;28;20032;-71
2023/11/01 10:44:20;;;;;;;1.55;1.08;;;12.20;96.10;;;;;;5021986;28;20026;-70
2023/11/01 10:46:47;;;;;;;1.65;1.08;;;12.30;96.40;;;;;;5030277;28;20115;-71
2023/11/01 10:49:13;;;;;;;3.88;1.25;;;12.30;96.80;;;;;;5021808;28;20018;-71
2023/11/01 10:51:40;;;;;;;4.50;1.52;;;12.40;96.90;;;;;;5011019;28;20437;-70
2023/11/01 10:54:07;;;;;;;4.32;1.35;;;12.50;97.30;;;;;;5029740;28;20107;-71
2023/11/01 10:56:33;;;;;;;5.72;1.85;;;12.60;97.40;;;;;;5010717;28;20064;-71
2023/11/01 10:59:25;;;;;;;3.95;1.20;;;12.70;97.10;;;;;;5027591;28;20061;-71
2023/11/01 11:01:57;;;;;;;1.45;1.00;;;12.70;97.00;;;;;;4995394;28;20507;-71
2023/11/01 11:04:26;;;;;;;1.40;0.98;;;13.00;97.40;;;;;;5013987;28;20034;-70
2023/11/01 11:07:37;;;;;;;5.35;1.48;;;13.20;97.20;;;;;;5010295;28;20038;-71
2023/11/01 11:10:23;;;;;;;2.47;1.30;;;13.50;96.60;;;;;;5019237;28;20541;-71
2023/11/01 11:13:17;;;;;;;4.80;1.13;;;13.60;96.10;;;;;;5009198;28;20684;-71
2023/11/01 11:15:46;;;;;;;4.63;1.00;;;13.70;96.10;;;;;;5006060;28;20111;-71
2023/11/01 11:18:13;;;;;;;3.53;1.13;;;13.70;96.10;;;;;;5012990;28;20215;-71
2023/11/01 11:20:38;;;;;;;1.40;1.10;;;13.80;96.20;;;;;;5029742;28;20017;-71
2023/11/01 11:23:14;;;;;;;2.38;1.23;;;13.80;96.20;;;;;;5011900;28;20038;-71
2023/11/01 11:25:45;;;;;;;1.83;1.17;;;13.80;96.30;;;;;;5029815;28;20041;-71
2023/11/01 11:28:17;;;;;;;4.18;1.45;;;13.80;95.90;;;;;;4994168;28;20068;-71
2023/11/01 11:31:12;;;;;;;3.17;1.40;;;13.80;95.60;;;;;;5029618;28;20038;-71
2023/11/01 11:33:49;;;;;;;2.63;1.10;;;13.80;95.90;;;;;;5027776;28;20114;-71
2023/11/01 11:36:18;;;;;;;1.88;1.45;;;13.90;96.20;;;;;;5017584;28;20092;-71
2023/11/01 11:38:54;;;;;;;4.45;1.42;;;13.90;96.40;;;;;;5012705;28;20026;-71
2023/11/01 11:41:36;;;;;;;3.08;1.60;;;14.00;95.70;;;;;;5029568;28;20025;-71
2023/11/01 11:44:11;;;;;;;6.43;1.73;;;14.00;95.80;;;;;;5000732;28;20029;-71
2023/11/01 11:46:44;;;;;;;2.67;1.17;;;14.00;96.00;;;;;;5029615;28;20418;-70
2023/11/01 11:49:22;;;;;;;7.65;1.42;;;14.00;96.20;;;;;;5003061;28;20040;-70
2023/11/01 11:52:07;;;;;;;4.55;1.05;;;14.20;96.30;;;;;;5029246;28;20053;-71
2023/11/01 11:54:34;;;;;;;3.10;1.35;;;14.40;96.00;;;;;;5018807;28;20033;-71
2023/11/01 11:57:11;;;;;;;2.25;1.30;;;14.60;95.80;;;;;;5007582;28;20092;-71
2023/11/01 11:59:41;;;;;;;2.75;1.10;;;14.60;94.90;;;;;;5026926;28;20040;-71
2023/11/01 12:02:10;;;;;;;3.22;1.38;;;14.60;95.00;;;;;;5004821;28;20466;-71
2023/11/01 12:04:36;;;;;;;2.50;1.42;;;14.60;95.20;;;;;;5027508;28;20594;-71
2023/11/01 12:07:02;;;;;;;2.65;1.15;;;14.70;95.50;;;;;;5009647;28;20049;-71
2023/11/01 12:09:29;;;;;;;1.42;0.90;;;14.80;95.70;;;;;;5027905;28;20034;-70
2023/11/01 12:11:57;;;;;;;2.70;0.95;;;14.70;95.60;;;;;;5009584;28;20032;-71
2023/11/01 12:14:29;;;;;;;3.53;1.35;;;14.70;95.90;;;;;;5028103;28;20207;-70
2023/11/01 12:16:58;;;;;;;3.50;1.30;;;14.80;95.60;;;;;;5009096;28;20476;-71
2023/11/01 12:19:25;;;;;;;1.88;0.90;;;14.80;95.30;;;;;;5026943;28;20040;-70
2023/11/01 12:21:52;;;;;;;3.50;1.00;;;14.90;95.40;;;;;;5009417;28;20296;-71
2023/11/01 12:24:26;;;;;;;2.80;1.40;;;15.00;95.30;;;;;;5027771;28;20022;-71
2023/11/01 12:27:10;;;;;;;3.65;1.40;;;15.20;94.80;;;;;;5028700;28;20109;-71
2023/11/01 12:29:46;;;;;;;1.75;0.95;;;15.30;94.30;;;;;;5007980;28;20033;-70
2023/11/01 12:32:19;;;;;;;2.00;0.98;;;15.40;94.30;;;;;;4989333;28;20023;-71
2023/11/01 12:34:48;;;;;;;3.00;1.45;;;15.30;93.80;;;;;;5011807;28;20115;-70
2023/11/01 12:37:14;;;;;;;2.17;1.10;;;15.30;93.30;;;;;;5001912;28;20026;-70
2023/11/01 12:39:57;;;;;;;3.22;1.13;;;15.20;93.00;;;;;;5027648;28;20156;-70
2023/11/01 12:42:25;;;;;;;3.20;1.25;;;15.10;93.50;;;;;;4989115;28;20041;-69
2023/11/01 12:44:52;;;;;;;2.67;1.38;;;15.00;93.60;;;;;;5027609;28;20059;-70
2023/11/01 12:47:19;;;;;;;5.00;1.17;;;14.90;93.80;;;;;;5028201;28;20029;-70
2023/11/01 12:49:45;;;;;;;5.18;1.05;;;15.00;94.30;;;;;;5019952;28;20222;-70
2023/11/01 12:52:11;;;;;;;2.55;1.13;;;15.10;94.40;;;;;;5009098;28;20184;-70